sensor_id;sensor_type;location;lat;lon;timestamp;temperature;humidity
9965;DHT22;5023;53.554;9.964;2023-05-07T00:01:34;9.60;99.90
9965;DHT22;5023;53.554;9.964;2023-05-07T00:06:37;9.60;99.90
9965;DHT22;5023;53.554;9.964;2023-05-07T00:11:39;9.70;99.90
9965;DHT22;5023;53.554;9.964;2023-05-07T00:16:41;9.50;99.90
9965;DHT22;5023;53.554;9.964;2023-05-07T00:21:44;9.50;99.90
9965;DHT22;5023;53.554;9.964;2023-05-07T00:26:46;9.50;99.90
9965;DHT22;5023;53.554;9.964;2023-05-07T00:31:49;9.50;99.90
9965;DHT22;5023;53.554;9.964;2023-05-07T00:36:52;9.50;99.90
9965;DHT22;5023;53.554;9.964;2023-05-07T00:41:54;9.50;99.90
9965;DHT22;5023;53.554;9.964;2023-05-07T00:46:57;9.40;99.90
9965;DHT22;5023;53.554;9.964;2023-05-07T00:52:00;9.40;99.90
9965;DHT22;5023;53.554;9.964;2023-05-07T00:57:03;9.40;99.90
9965;DHT22;5023;53.554;9.964;2023-05-07T01:02:05;9.40;99.90
9965;DHT22;5023;53.554;9.964;2023-05-07T01:07:08;9.30;99.90
9965;DHT22;5023;53.554;9.964;2023-05-07T01:12:10;9.40;99.90
9965;DHT22;5023;53.554;9.964;2023-05-07T01:17:12;9.50;99.90
9965;DHT22;5023;53.554;9.964;2023-05-07T01:22:24;9.50;99.90
9965;DHT22;5023;53.554;9.964;2023-05-07T01:27:28;9.40;99.90
9965;DHT22;5023;53.554;9.964;2023-05-07T01:32:35;9.40;99.90
9965;DHT22;5023;53.554;9.964;2023-05-07T01:37:39;9.40;99.90
9965;DHT22;5023;53.554;9.964;2023-05-07T01:42:43;9.40;99.90
9965;DHT22;5023;53.554;9.964;2023-05-07T01:47:45;9.50;99.90
9965;DHT22;5023;53.554;9.964;2023-05-07T01:52:50;9.60;99.90
9965;DHT22;5023;53.554;9.964;2023-05-07T01:57:52;9.50;99.90
9965;DHT22;5023;53.554;9.964;2023-05-07T02:02:54;9.50;99.90
9965;DHT22;5023;53.554;9.964;2023-05-07T02:07:57;9.50;99.90
9965;DHT22;5023;53.554;9.964;2023-05-07T02:12:59;9.50;99.90
9965;DHT22;5023;53.554;9.964;2023-05-07T02:18:03;9.50;99.90
9965;DHT22;5023;53.554;9.964;2023-05-07T02:23:08;9.60;99.90
9965;DHT22;5023;53.554;9.964;2023-05-07T02:28:10;9.50;99.90
9965;DHT22;5023;53.554;9.964;2023-05-07T02:33:12;9.50;99.90
9965;DHT22;5023;53.554;9.964;2023-05-07T02:38:15;9.60;99.90
9965;DHT22;5023;53.554;9.964;2023-05-07T02:43:17;9.50;99.90
9965;DHT22;5023;53.554;9.964;2023-05-07T02:48:19;9.40;99.90
9965;DHT22;5023;53.554;9.964;2023-05-07T02:53:22;9.40;99.90
9965;DHT22;5023;53.554;9.964;2023-05-07T02:58:26;9.40;99.90
9965;DHT22;5023;53.554;9.964;2023-05-07T03:03:28;9.40;99.90
9965;DHT22;5023;53.554;9.964;2023-05-07T03:08:32;9.30;99.90
9965;DHT22;5023;53.554;9.964;2023-05-07T03:13:34;9.40;99.90
9965;DHT22;5023;53.554;9.964;2023-05-07T03:18:35;9.40;99.90
9965;DHT22;5023;53.554;9.964;2023-05-07T03:23:39;9.30;99.90
9965;DHT22;5023;53.554;9.964;2023-05-07T03:28:41;9.30;99.90
9965;DHT22;5023;53.554;9.964;2023-05-07T03:33:50;9.20;99.90
9965;DHT22;5023;53.554;9.964;2023-05-07T03:38:53;9.20;99.90
9965;DHT22;5023;53.554;9.964;2023-05-07T03:43:55;9.20;99.90
9965;DHT22;5023;53.554;9.964;2023-05-07T03:48:57;9.20;99.90
9965;DHT22;5023;53.554;9.964;2023-05-07T03:54:00;9.20;99.90
9965;DHT22;5023;53.554;9.964;2023-05-07T03:59:02;9.20;99.90
9965;DHT22;5023;53.554;9.964;2023-05-07T04:04:04;9.20;99.90
9965;DHT22;5023;53.554;9.964;2023-05-07T04:09:07;9.20;99.90
9965;DHT22;5023;53.554;9.964;2023-05-07T04:14:09;9.30;99.90
9965;DHT22;5023;53.554;9.964;2023-05-07T04:19:11;9.40;99.90
9965;DHT22;5023;53.554;9.964;2023-05-07T04:24:14;9.40;99.90
9965;DHT22;5023;53.554;9.964;2023-05-07T04:29:16;9.40;99.90
9965;DHT22;5023;53.554;9.964;2023-05-07T04:34:18;9.40;99.90
9965;DHT22;5023;53.554;9.964;2023-05-07T04:39:23;9.50;99.90
9965;DHT22;5023;53.554;9.964;2023-05-07T04:44:24;9.40;99.90
9965;DHT22;5023;53.554;9.964;2023-05-07T04:49:27;9.50;99.90
9965;DHT22;5023;53.554;9.964;2023-05-07T04:54:30;9.40;99.90
9965;DHT22;5023;53.554;9.964;2023-05-07T04:59:32;9.50;99.90
9965;DHT22;5023;53.554;9.964;2023-05-07T05:04:34;9.40;99.90
9965;DHT22;5023;53.554;9.964;2023-05-07T05:09:37;9.40;99.90
9965;DHT22;5023;53.554;9.964;2023-05-07T05:14:39;9.40;99.90
9965;DHT22;5023;53.554;9.964;2023-05-07T05:19:41;9.40;99.90
9965;DHT22;5023;53.554;9.964;2023-05-07T05:24:44;9.40;99.90
9965;DHT22;5023;53.554;9.964;2023-05-07T05:29:46;9.50;99.90
9965;DHT22;5023;53.554;9.964;2023-05-07T05:34:48;9.60;99.90
9965;DHT22;5023;53.554;9.964;2023-05-07T05:39:51;9.60;99.90
9965;DHT22;5023;53.554;9.964;2023-05-07T05:44:55;9.60;99.90
9965;DHT22;5023;53.554;9.964;2023-05-07T05:49:57;9.70;99.90
9965;DHT22;5023;53.554;9.964;2023-05-07T05:55:00;9.70;99.90
9965;DHT22;5023;53.554;9.964;2023-05-07T06:00:02;9.60;99.90
9965;DHT22;5023;53.554;9.964;2023-05-07T06:05:05;9.70;99.90
9965;DHT22;5023;53.554;9.964;2023-05-07T06:10:09;9.80;99.90
9965;DHT22;5023;53.554;9.964;2023-05-07T06:15:11;9.80;99.90
9965;DHT22;5023;53.554;9.964;2023-05-07T06:20:13;9.80;99.90
9965;DHT22;5023;53.554;9.964;2023-05-07T06:25:16;9.80;99.90
9965;DHT22;5023;53.554;9.964;2023-05-07T06:30:18;9.80;99.90
9965;DHT22;5023;53.554;9.964;2023-05-07T06:35:20;9.80;99.90
9965;DHT22;5023;53.554;9.964;2023-05-07T06:40:24;9.90;99.90
9965;DHT22;5023;53.554;9.964;2023-05-07T06:45:26;9.90;99.90
9965;DHT22;5023;53.554;9.964;2023-05-07T06:50:28;9.90;99.90
9965;DHT22;5023;53.554;9.964;2023-05-07T06:55:31;9.90;99.90
9965;DHT22;5023;53.554;9.964;2023-05-07T07:00:33;10.00;99.90
9965;DHT22;5023;53.554;9.964;2023-05-07T07:05:35;10.00;99.90
9965;DHT22;5023;53.554;9.964;2023-05-07T07:10:38;10.00;99.90
9965;DHT22;5023;53.554;9.964;2023-05-07T07:15:40;10.10;99.90
9965;DHT22;5023;53.554;9.964;2023-05-07T07:20:44;10.20;99.90
9965;DHT22;5023;53.554;9.964;2023-05-07T07:25:47;10.10;99.90
9965;DHT22;5023;53.554;9.964;2023-05-07T07:30:49;10.20;99.90
9965;DHT22;5023;53.554;9.964;2023-05-07T07:35:51;10.20;99.90
9965;DHT22;5023;53.554;9.964;2023-05-07T07:40:54;10.20;99.90
9965;DHT22;5023;53.554;9.964;2023-05-07T07:45:56;10.30;99.90
9965;DHT22;5023;53.554;9.964;2023-05-07T07:50:58;10.30;99.90
9965;DHT22;5023;53.554;9.964;2023-05-07T07:56:01;10.40;99.90
9965;DHT22;5023;53.554;9.964;2023-05-07T08:01:04;10.40;99.90
9965;DHT22;5023;53.554;9.964;2023-05-07T08:06:06;10.50;99.90
9965;DHT22;5023;53.554;9.964;2023-05-07T08:11:09;10.60;99.90
9965;DHT22;5023;53.554;9.964;2023-05-07T08:16:11;10.60;99.90
9965;DHT22;5023;53.554;9.964;2023-05-07T08:21:13;10.60;99.90
9965;DHT22;5023;53.554;9.964;2023-05-07T08:26:17;10.60;99.90
9965;DHT22;5023;53.554;9.964;2023-05-07T08:31:19;10.60;99.90
9965;DHT22;5023;53.554;9.964;2023-05-07T08:36:21;10.70;99.90
9965;DHT22;5023;53.554;9.964;2023-05-07T08:41:24;10.70;99.90
9965;DHT22;5023;53.554;9.964;2023-05-07T08:46:31;10.80;99.90
9965;DHT22;5023;53.554;9.964;2023-05-07T08:51:33;11.00;99.90
9965;DHT22;5023;53.554;9.964;2023-05-07T08:56:37;10.90;99.90
9965;DHT22;5023;53.554;9.964;2023-05-07T09:01:40;11.00;99.90
9965;DHT22;5023;53.554;9.964;2023-05-07T09:06:42;10.90;99.90
9965;DHT22;5023;53.554;9.964;2023-05-07T09:11:45;10.80;99.90
9965;DHT22;5023;53.554;9.964;2023-05-07T09:16:47;11.00;99.90
9965;DHT22;5023;53.554;9.964;2023-05-07T09:21:49;11.00;99.90
9965;DHT22;5023;53.554;9.964;2023-05-07T09:26:52;11.00;99.90
9965;DHT22;5023;53.554;9.964;2023-05-07T09:31:54;11.10;99.90
9965;DHT22;5023;53.554;9.964;2023-05-07T09:36:58;11.30;99.90
9965;DHT22;5023;53.554;9.964;2023-05-07T09:42:02;11.20;99.90
9965;DHT22;5023;53.554;9.964;2023-05-07T09:47:05;11.30;99.90
9965;DHT22;5023;53.554;9.964;2023-05-07T09:52:08;11.50;99.90
9965;DHT22;5023;53.554;9.964;2023-05-07T09:57:12;11.40;99.90
9965;DHT22;5023;53.554;9.964;2023-05-07T10:02:15;11.60;99.90
9965;DHT22;5023;53.554;9.964;2023-05-07T10:07:20;11.60;99.90
9965;DHT22;5023;53.554;9.964;2023-05-07T10:12:24;11.40;99.90
9965;DHT22;5023;53.554;9.964;2023-05-07T10:17:26;11.40;99.90
9965;DHT22;5023;53.554;9.964;2023-05-07T10:22:28;11.70;99.90
9965;DHT22;5023;53.554;9.964;2023-05-07T10:27:36;11.80;99.90
9965;DHT22;5023;53.554;9.964;2023-05-07T10:32:40;11.90;99.90
9965;DHT22;5023;53.554;9.964;2023-05-07T10:37:45;11.70;99.90
9965;DHT22;5023;53.554;9.964;2023-05-07T10:42:58;11.80;99.90
9965;DHT22;5023;53.554;9.964;2023-05-07T10:48:08;11.80;99.90
9965;DHT22;5023;53.554;9.964;2023-05-07T10:53:24;11.90;99.90
9965;DHT22;5023;53.554;9.964;2023-05-07T10:58:29;12.00;99.90
9965;DHT22;5023;53.554;9.964;2023-05-07T11:03:33;12.00;99.90
9965;DHT22;5023;53.554;9.964;2023-05-07T11:08:56;12.10;99.90
9965;DHT22;5023;53.554;9.964;2023-05-07T11:14:00;12.20;99.90
9965;DHT22;5023;53.554;9.964;2023-05-07T11:19:02;12.20;99.90
9965;DHT22;5023;53.554;9.964;2023-05-07T11:24:05;12.30;99.90
9965;DHT22;5023;53.554;9.964;2023-05-07T11:29:12;12.60;99.90
9965;DHT22;5023;53.554;9.964;2023-05-07T11:34:15;12.50;99.90
9965;DHT22;5023;53.554;9.964;2023-05-07T11:39:29;12.60;99.90
9965;DHT22;5023;53.554;9.964;2023-05-07T11:44:44;12.90;99.90
9965;DHT22;5023;53.554;9.964;2023-05-07T11:49:48;12.80;99.90
9965;DHT22;5023;53.554;9.964;2023-05-07T11:54:50;12.70;99.90
9965;DHT22;5023;53.554;9.964;2023-05-07T11:59:54;13.00;99.90
9965;DHT22;5023;53.554;9.964;2023-05-07T12:04:56;13.20;99.90
9965;DHT22;5023;53.554;9.964;2023-05-07T12:09:58;13.20;99.90
9965;DHT22;5023;53.554;9.964;2023-05-07T12:15:01;13.20;99.90
9965;DHT22;5023;53.554;9.964;2023-05-07T12:20:04;13.20;99.90
9965;DHT22;5023;53.554;9.964;2023-05-07T12:25:07;13.40;99.90
9965;DHT22;5023;53.554;9.964;2023-05-07T12:30:12;13.60;99.90
9965;DHT22;5023;53.554;9.964;2023-05-07T12:35:14;13.50;99.90
9965;DHT22;5023;53.554;9.964;2023-05-07T12:40:17;13.70;99.90
9965;DHT22;5023;53.554;9.964;2023-05-07T12:45:20;14.10;99.90
9965;DHT22;5023;53.554;9.964;2023-05-07T12:50:23;14.30;99.90
9965;DHT22;5023;53.554;9.964;2023-05-07T12:55:25;14.50;99.90
9965;DHT22;5023;53.554;9.964;2023-05-07T13:00:35;14.60;99.90
9965;DHT22;5023;53.554;9.964;2023-05-07T13:05:38;14.90;99.90
9965;DHT22;5023;53.554;9.964;2023-05-07T13:10:40;14.90;99.90
9965;DHT22;5023;53.554;9.964;2023-05-07T13:15:43;14.90;99.90
9965;DHT22;5023;53.554;9.964;2023-05-07T13:20:45;15.10;99.90
9965;DHT22;5023;53.554;9.964;2023-05-07T13:25:48;15.10;99.90
9965;DHT22;5023;53.554;9.964;2023-05-07T13:30:52;15.30;99.90
9965;DHT22;5023;53.554;9.964;2023-05-07T13:35:55;15.00;99.90
9965;DHT22;5023;53.554;9.964;2023-05-07T13:40:58;15.30;99.90
9965;DHT22;5023;53.554;9.964;2023-05-07T13:46:02;15.50;99.90
9965;DHT22;5023;53.554;9.964;2023-05-07T13:51:04;15.40;99.90
9965;DHT22;5023;53.554;9.964;2023-05-07T13:56:06;15.70;99.90
9965;DHT22;5023;53.554;9.964;2023-05-07T14:01:09;15.50;99.90
9965;DHT22;5023;53.554;9.964;2023-05-07T14:06:11;15.40;99.90
9965;DHT22;5023;53.554;9.964;2023-05-07T14:11:13;15.40;99.90
9965;DHT22;5023;53.554;9.964;2023-05-07T14:16:17;15.70;99.90
9965;DHT22;5023;53.554;9.964;2023-05-07T14:21:18;16.20;99.90
9965;DHT22;5023;53.554;9.964;2023-05-07T14:26:20;16.50;99.90
9965;DHT22;5023;53.554;9.964;2023-05-07T14:31:25;17.00;99.90
9965;DHT22;5023;53.554;9.964;2023-05-07T14:36:27;17.10;99.90
9965;DHT22;5023;53.554;9.964;2023-05-07T14:41:30;17.10;99.90
9965;DHT22;5023;53.554;9.964;2023-05-07T14:46:35;17.10;99.90
9965;DHT22;5023;53.554;9.964;2023-05-07T14:51:36;17.00;99.90
9965;DHT22;5023;53.554;9.964;2023-05-07T14:56:38;17.20;99.90
9965;DHT22;5023;53.554;9.964;2023-05-07T15:01:42;17.30;99.90
9965;DHT22;5023;53.554;9.964;2023-05-07T15:06:45;17.20;99.90
9965;DHT22;5023;53.554;9.964;2023-05-07T15:11:48;17.30;99.90
9965;DHT22;5023;53.554;9.964;2023-05-07T15:16:51;17.00;99.90
9965;DHT22;5023;53.554;9.964;2023-05-07T15:21:53;16.80;99.90
9965;DHT22;5023;53.554;9.964;2023-05-07T15:26:55;16.80;99.90
9965;DHT22;5023;53.554;9.964;2023-05-07T15:31:58;16.80;99.90
9965;DHT22;5023;53.554;9.964;2023-05-07T15:37:00;16.80;99.90
9965;DHT22;5023;53.554;9.964;2023-05-07T15:42:02;16.70;99.90
9965;DHT22;5023;53.554;9.964;2023-05-07T15:47:06;16.60;99.90
9965;DHT22;5023;53.554;9.964;2023-05-07T15:52:08;16.60;99.90
9965;DHT22;5023;53.554;9.964;2023-05-07T15:57:11;16.60;99.90
9965;DHT22;5023;53.554;9.964;2023-05-07T16:02:14;16.60;99.90
9965;DHT22;5023;53.554;9.964;2023-05-07T16:07:16;16.50;99.90
9965;DHT22;5023;53.554;9.964;2023-05-07T16:12:19;16.50;99.90
9965;DHT22;5023;53.554;9.964;2023-05-07T16:17:23;16.30;99.90
9965;DHT22;5023;53.554;9.964;2023-05-07T16:22:25;16.40;99.90
9965;DHT22;5023;53.554;9.964;2023-05-07T16:27:28;16.40;99.90
9965;DHT22;5023;53.554;9.964;2023-05-07T16:32:32;16.50;99.90
9965;DHT22;5023;53.554;9.964;2023-05-07T16:37:34;16.50;99.90
9965;DHT22;5023;53.554;9.964;2023-05-07T16:42:36;16.50;99.90
9965;DHT22;5023;53.554;9.964;2023-05-07T16:47:39;16.30;99.90
9965;DHT22;5023;53.554;9.964;2023-05-07T16:52:41;16.40;99.90
9965;DHT22;5023;53.554;9.964;2023-05-07T16:57:43;16.40;99.90
9965;DHT22;5023;53.554;9.964;2023-05-07T17:02:46;16.40;99.90
9965;DHT22;5023;53.554;9.964;2023-05-07T17:07:48;16.40;99.90
9965;DHT22;5023;53.554;9.964;2023-05-07T17:12:50;16.40;99.90
9965;DHT22;5023;53.554;9.964;2023-05-07T17:17:54;16.40;99.90
9965;DHT22;5023;53.554;9.964;2023-05-07T17:22:56;16.40;99.90
9965;DHT22;5023;53.554;9.964;2023-05-07T17:27:58;16.50;99.90
9965;DHT22;5023;53.554;9.964;2023-05-07T17:33:01;16.40;99.90
9965;DHT22;5023;53.554;9.964;2023-05-07T17:38:03;16.30;99.90
9965;DHT22;5023;53.554;9.964;2023-05-07T17:43:05;16.40;99.90
9965;DHT22;5023;53.554;9.964;2023-05-07T17:48:08;16.40;99.90
9965;DHT22;5023;53.554;9.964;2023-05-07T17:53:10;16.30;99.90
9965;DHT22;5023;53.554;9.964;2023-05-07T17:58:12;16.20;99.90
9965;DHT22;5023;53.554;9.964;2023-05-07T18:03:16;16.10;99.90
9965;DHT22;5023;53.554;9.964;2023-05-07T18:08:18;16.10;99.90
9965;DHT22;5023;53.554;9.964;2023-05-07T18:13:22;16.10;99.90
9965;DHT22;5023;53.554;9.964;2023-05-07T18:18:25;15.90;99.90
9965;DHT22;5023;53.554;9.964;2023-05-07T18:23:31;15.80;99.90
9965;DHT22;5023;53.554;9.964;2023-05-07T18:28:35;15.70;99.90
9965;DHT22;5023;53.554;9.964;2023-05-07T18:33:38;15.70;99.90
9965;DHT22;5023;53.554;9.964;2023-05-07T18:38:40;15.60;99.90
9965;DHT22;5023;53.554;9.964;2023-05-07T18:43:43;15.50;99.90
9965;DHT22;5023;53.554;9.964;2023-05-07T18:48:46;15.40;99.90
9965;DHT22;5023;53.554;9.964;2023-05-07T18:53:48;15.30;99.90
9965;DHT22;5023;53.554;9.964;2023-05-07T18:58:50;15.30;99.90
9965;DHT22;5023;53.554;9.964;2023-05-07T19:03:53;15.10;99.90
9965;DHT22;5023;53.554;9.964;2023-05-07T19:08:55;15.00;99.90
9965;DHT22;5023;53.554;9.964;2023-05-07T19:13:57;15.00;99.90
9965;DHT22;5023;53.554;9.964;2023-05-07T19:19:00;15.00;99.90
9965;DHT22;5023;53.554;9.964;2023-05-07T19:24:02;14.90;99.90
9965;DHT22;5023;53.554;9.964;2023-05-07T19:29:04;14.80;99.90
9965;DHT22;5023;53.554;9.964;2023-05-07T19:34:07;14.70;99.90
9965;DHT22;5023;53.554;9.964;2023-05-07T19:39:09;14.70;99.90
9965;DHT22;5023;53.554;9.964;2023-05-07T19:44:12;14.70;99.90
9965;DHT22;5023;53.554;9.964;2023-05-07T19:49:15;14.60;99.90
9965;DHT22;5023;53.554;9.964;2023-05-07T19:54:17;14.50;99.90
9965;DHT22;5023;53.554;9.964;2023-05-07T19:59:20;14.50;99.90
9965;DHT22;5023;53.554;9.964;2023-05-07T20:04:23;14.40;99.90
9965;DHT22;5023;53.554;9.964;2023-05-07T20:09:29;14.40;99.90
9965;DHT22;5023;53.554;9.964;2023-05-07T20:14:32;14.40;99.90
9965;DHT22;5023;53.554;9.964;2023-05-07T20:19:35;14.30;99.90
9965;DHT22;5023;53.554;9.964;2023-05-07T20:24:38;14.30;99.90
9965;DHT22;5023;53.554;9.964;2023-05-07T20:29:40;14.30;99.90
9965;DHT22;5023;53.554;9.964;2023-05-07T20:34:43;14.30;99.90
9965;DHT22;5023;53.554;9.964;2023-05-07T20:39:45;14.10;99.90
9965;DHT22;5023;53.554;9.964;2023-05-07T20:44:47;14.00;99.90
9965;DHT22;5023;53.554;9.964;2023-05-07T20:49:52;13.90;99.90
9965;DHT22;5023;53.554;9.964;2023-05-07T20:54:54;13.80;99.90
9965;DHT22;5023;53.554;9.964;2023-05-07T20:59:56;13.80;99.90
9965;DHT22;5023;53.554;9.964;2023-05-07T21:05:00;13.70;99.90
9965;DHT22;5023;53.554;9.964;2023-05-07T21:10:02;13.70;99.90
9965;DHT22;5023;53.554;9.964;2023-05-07T21:15:05;13.70;99.90
9965;DHT22;5023;53.554;9.964;2023-05-07T21:20:09;13.60;99.90
9965;DHT22;5023;53.554;9.964;2023-05-07T21:25:11;13.50;99.90
9965;DHT22;5023;53.554;9.964;2023-05-07T21:30:14;13.50;99.90
9965;DHT22;5023;53.554;9.964;2023-05-07T21:35:17;13.50;99.90
9965;DHT22;5023;53.554;9.964;2023-05-07T21:40:19;13.50;99.90
9965;DHT22;5023;53.554;9.964;2023-05-07T21:45:21;13.40;99.90
9965;DHT22;5023;53.554;9.964;2023-05-07T21:50:25;13.40;99.90
9965;DHT22;5023;53.554;9.964;2023-05-07T21:55:26;13.40;99.90
9965;DHT22;5023;53.554;9.964;2023-05-07T22:00:28;13.40;99.90
9965;DHT22;5023;53.554;9.964;2023-05-07T22:05:32;13.30;99.90
9965;DHT22;5023;53.554;9.964;2023-05-07T22:10:34;13.30;99.90
9965;DHT22;5023;53.554;9.964;2023-05-07T22:15:36;13.20;99.90
9965;DHT22;5023;53.554;9.964;2023-05-07T22:20:40;13.10;99.90
9965;DHT22;5023;53.554;9.964;2023-05-07T22:25:41;13.00;99.90
9965;DHT22;5023;53.554;9.964;2023-05-07T22:30:43;12.90;99.90
9965;DHT22;5023;53.554;9.964;2023-05-07T22:35:47;12.80;99.90
9965;DHT22;5023;53.554;9.964;2023-05-07T22:40:48;12.70;99.90
9965;DHT22;5023;53.554;9.964;2023-05-07T22:45:56;12.70;99.90
9965;DHT22;5023;53.554;9.964;2023-05-07T22:51:00;12.60;99.90
9965;DHT22;5023;53.554;9.964;2023-05-07T22:56:04;12.50;99.90
9965;DHT22;5023;53.554;9.964;2023-05-07T23:01:11;12.40;99.90
9965;DHT22;5023;53.554;9.964;2023-05-07T23:06:14;12.40;99.90
9965;DHT22;5023;53.554;9.964;2023-05-07T23:11:16;12.30;99.90
9965;DHT22;5023;53.554;9.964;2023-05-07T23:16:18;12.20;99.90
9965;DHT22;5023;53.554;9.964;2023-05-07T23:21:22;12.10;99.90
9965;DHT22;5023;53.554;9.964;2023-05-07T23:26:25;12.10;99.90
9965;DHT22;5023;53.554;9.964;2023-05-07T23:31:28;12.00;99.90
9965;DHT22;5023;53.554;9.964;2023-05-07T23:36:32;11.90;99.90
9965;DHT22;5023;53.554;9.964;2023-05-07T23:41:33;11.90;99.90
9965;DHT22;5023;53.554;9.964;2023-05-07T23:46:35;11.80;99.90
9965;DHT22;5023;53.554;9.964;2023-05-07T23:51:39;11.70;99.90
9965;DHT22;5023;53.554;9.964;2023-05-07T23:56:40;11.60;99.90
